createdAt,value
2022-11-29T00:02:54.452Z,66.56
2022-11-29T00:07:10.809Z,67.71
2022-11-29T00:11:47.899Z,65.89
2022-11-29T00:16:06.619Z,66.36
2022-11-29T00:20:22.774Z,65.85
2022-11-29T00:24:39.013Z,65.22
2022-11-29T00:28:55.330Z,65.60
2022-11-29T00:33:11.529Z,64.97
2022-11-29T00:37:27.733Z,65.64
2022-11-29T00:41:44.284Z,65.95
2022-11-29T00:46:00.582Z,65.06
2022-11-29T00:50:16.808Z,66.04
2022-11-29T00:54:32.915Z,64.53
2022-11-29T00:58:49.698Z,64.33
2022-11-29T01:03:06.031Z,64.67
2022-11-29T01:07:22.280Z,65.72
2022-11-29T01:11:38.638Z,65.48
2022-11-29T01:15:58.671Z,65.80
2022-11-29T01:20:15.221Z,64.55
2022-11-29T01:24:31.637Z,64.42
2022-11-29T01:28:50.016Z,66.73
2022-11-29T01:33:06.189Z,64.76
2022-11-29T01:37:22.311Z,64.94
2022-11-29T01:41:38.905Z,64.17
2022-11-29T01:45:55.270Z,64.98
2022-11-29T01:50:11.872Z,64.93
2022-11-29T01:54:29.547Z,65.88
2022-11-29T01:58:45.793Z,66.21
2022-11-29T02:03:11.117Z,66.86
2022-11-29T02:07:27.422Z,66.58
2022-11-29T02:12:06.793Z,66.62
2022-11-29T02:16:51.094Z,65.59
2022-11-29T02:21:11.274Z,66.07
2022-11-29T02:25:33.457Z,65.36
2022-11-29T02:30:08.795Z,66.10
2022-11-29T02:34:44.004Z,65.66
2022-11-29T02:39:44.623Z,65.15
2022-11-29T02:44:25.624Z,66.20
2022-11-29T02:48:52.321Z,66.57
2022-11-29T02:53:40.815Z,65.51
2022-11-29T02:58:10.798Z,64.48
2022-11-29T03:02:45.476Z,64.81
2022-11-29T03:07:20.223Z,64.45
2022-11-29T03:11:50.972Z,65.54
2022-11-29T03:16:28.965Z,64.67
2022-11-29T03:21:19.149Z,65.12
2022-11-29T03:25:46.557Z,64.00
2022-11-29T03:30:08.578Z,63.26
2022-11-29T03:35:02.109Z,63.11
2022-11-29T03:40:00.055Z,63.61
2022-11-29T03:44:24.514Z,64.16
2022-11-29T03:48:55.108Z,64.38
2022-11-29T03:53:33.438Z,63.68
2022-11-29T03:58:27.889Z,63.54
2022-11-29T04:03:21.574Z,65.59
2022-11-29T04:07:56.344Z,64.43
2022-11-29T04:12:43.423Z,63.72
2022-11-29T04:17:08.442Z,64.35
2022-11-29T04:21:30.116Z,64.79
2022-11-29T04:26:03.575Z,65.62
2022-11-29T04:30:23.731Z,63.90
2022-11-29T04:35:07.730Z,64.61
2022-11-29T04:39:56.466Z,64.31
2022-11-29T04:44:46.764Z,64.46
2022-11-29T04:49:33.443Z,65.31
2022-11-29T04:54:19.946Z,65.13
2022-11-29T04:58:59.244Z,65.42
2022-11-29T05:03:27.891Z,65.70
2022-11-29T05:08:23.042Z,65.52
2022-11-29T05:13:17.944Z,67.00
2022-11-29T05:17:50.750Z,67.04
2022-11-29T05:22:28.567Z,67.97
2022-11-29T05:26:52.454Z,67.13
2022-11-29T05:31:51.823Z,66.52
2022-11-29T05:36:23.145Z,65.67
2022-11-29T05:41:04.760Z,66.15
2022-11-29T05:45:33.465Z,67.03
2022-11-29T05:50:11.277Z,66.33
2022-11-29T05:54:52.506Z,67.04
2022-11-29T05:59:18.813Z,66.41
2022-11-29T06:04:15.006Z,65.84
2022-11-29T06:08:34.150Z,66.54
2022-11-29T06:13:04.483Z,66.43
2022-11-29T06:17:38.982Z,66.05
2022-11-29T06:22:07.360Z,67.35
2022-11-29T06:27:00.519Z,66.20
2022-11-29T06:31:24.220Z,67.48
2022-11-29T06:35:49.431Z,68.80
2022-11-29T06:40:10.239Z,67.52
2022-11-29T06:44:26.689Z,65.37
2022-11-29T06:49:04.057Z,65.72
2022-11-29T06:53:43.936Z,66.74
2022-11-29T06:58:34.494Z,66.19
2022-11-29T07:03:29.111Z,66.57
2022-11-29T07:07:47.261Z,66.42
2022-11-29T07:12:03.830Z,66.04
2022-11-29T07:16:26.800Z,65.56
2022-11-29T07:20:58.677Z,65.28
2022-11-29T07:25:26.896Z,64.99
2022-11-29T07:30:00.427Z,67.49
2022-11-29T07:34:26.520Z,66.81
2022-11-29T07:39:10.713Z,65.94
2022-11-29T07:43:35.267Z,66.13
2022-11-29T07:47:51.766Z,64.60
2022-11-29T07:52:11.071Z,66.08
2022-11-29T07:56:27.195Z,65.96
2022-11-29T08:00:44.204Z,65.98
2022-11-29T08:05:01.938Z,65.44
2022-11-29T08:09:18.292Z,66.38
2022-11-29T08:13:34.530Z,65.95
2022-11-29T08:17:51.215Z,66.06
2022-11-29T08:22:07.272Z,66.27
2022-11-29T08:26:26.924Z,66.26
2022-11-29T08:30:47.509Z,65.20
2022-11-29T08:35:03.788Z,64.36
2022-11-29T08:39:19.945Z,65.45
2022-11-29T08:43:36.963Z,64.79
2022-11-29T08:47:53.097Z,64.84
2022-11-29T08:52:28.012Z,63.69
2022-11-29T09:01:20.381Z,63.33
2022-11-29T09:05:37.469Z,63.23
2022-11-29T09:09:53.621Z,63.89
2022-11-29T09:14:14.120Z,61.61
2022-11-29T09:18:30.267Z,62.58
2022-11-29T09:22:46.409Z,61.12
2022-11-29T09:27:03.219Z,63.07
2022-11-29T09:31:20.427Z,62.53
2022-11-29T09:35:36.650Z,61.52
2022-11-29T09:39:52.721Z,61.67
2022-11-29T09:44:33.123Z,63.61
2022-11-29T09:49:04.748Z,62.34
2022-11-29T09:53:47.013Z,61.43
2022-11-29T09:58:04.111Z,60.78
2022-11-29T10:02:37.561Z,60.97
2022-11-29T10:07:31.757Z,59.10
2022-11-29T10:12:00.116Z,59.08
2022-11-29T10:16:27.749Z,58.14
2022-11-29T10:20:49.181Z,57.84
2022-11-29T10:25:07.019Z,58.40
2022-11-29T10:29:23.765Z,59.41
2022-11-29T10:33:41.542Z,59.04
2022-11-29T10:38:29.743Z,58.52
2022-11-29T10:42:50.203Z,58.09
2022-11-29T10:47:10.758Z,58.18
2022-11-29T10:51:27.631Z,59.31
2022-11-29T10:56:01.894Z,58.91
2022-11-29T11:00:18.187Z,58.22
2022-11-29T11:04:37.558Z,57.40
2022-11-29T11:09:21.109Z,57.35
2022-11-29T11:13:37.751Z,56.83
2022-11-29T11:18:07.587Z,55.24
2022-11-29T11:22:25.295Z,54.87
2022-11-29T11:26:45.638Z,54.21
2022-11-29T11:31:05.885Z,52.95
2022-11-29T11:35:24.427Z,51.84
2022-11-29T11:39:41.316Z,52.07
2022-11-29T11:43:59.559Z,51.88
2022-11-29T11:48:16.955Z,50.64
2022-11-29T11:52:50.712Z,51.67
2022-11-29T11:57:16.120Z,50.55
2022-11-29T12:01:38.959Z,49.70
2022-11-29T12:05:59.580Z,48.90
2022-11-29T12:10:24.825Z,49.13
2022-11-29T12:14:58.516Z,51.53
2022-11-29T12:19:40.951Z,50.75
2022-11-29T12:24:25.002Z,50.50
2022-11-29T12:28:44.215Z,50.68
2022-11-29T12:33:25.016Z,51.73
2022-11-29T12:37:50.601Z,52.70
2022-11-29T12:42:47.257Z,52.70
2022-11-29T12:47:36.440Z,52.48
2022-11-29T12:52:34.958Z,52.93
2022-11-29T12:57:07.300Z,54.60
2022-11-29T13:01:36.979Z,53.48
2022-11-29T13:06:03.206Z,54.13
2022-11-29T13:10:40.466Z,53.89
2022-11-29T13:15:05.565Z,52.75
2022-11-29T13:19:39.245Z,52.74
2022-11-29T13:24:08.678Z,52.75
2022-11-29T13:28:28.580Z,51.82
2022-11-29T13:32:51.441Z,51.12
2022-11-29T13:37:34.136Z,49.42
2022-11-29T13:42:19.312Z,49.94
2022-11-29T13:47:03.875Z,45.49
2022-11-29T13:51:39.182Z,44.80
2022-11-29T13:56:02.028Z,43.60
2022-11-29T14:01:13.681Z,43.34
2022-11-29T14:05:29.908Z,43.18
2022-11-29T14:09:48.870Z,46.46
2022-11-29T14:14:17.864Z,48.82
2022-11-29T14:18:42.895Z,50.97
2022-11-29T14:23:31.715Z,51.41
2022-11-29T14:27:55.369Z,53.54
2022-11-29T14:32:31.026Z,52.89
2022-11-29T14:37:22.648Z,53.22
2022-11-29T14:41:50.479Z,52.26
2022-11-29T14:46:28.907Z,54.98
2022-11-29T14:50:45.547Z,54.33
2022-11-29T14:55:17.596Z,54.84
2022-11-29T14:59:47.981Z,54.52
2022-11-29T15:04:07.513Z,54.72
2022-11-29T15:08:26.420Z,57.09
2022-11-29T15:12:42.825Z,57.26
2022-11-29T15:17:23.376Z,57.59
2022-11-29T15:21:55.362Z,57.47
2022-11-29T15:26:19.996Z,56.90
2022-11-29T15:30:39.379Z,56.84
2022-11-29T15:34:56.970Z,57.46
2022-11-29T15:39:27.187Z,58.38
2022-11-29T15:43:44.045Z,57.84
2022-11-29T15:48:25.833Z,58.85
2022-11-29T15:52:42.287Z,58.44
2022-11-29T15:57:03.729Z,57.67
2022-11-29T16:01:21.817Z,57.97
2022-11-29T16:05:39.392Z,58.59
2022-11-29T16:10:19.932Z,59.46
2022-11-29T16:14:36.091Z,60.34
2022-11-29T16:18:52.269Z,61.42
2022-11-29T16:23:15.399Z,61.77
2022-11-29T16:27:36.241Z,60.96
2022-11-29T16:31:53.465Z,61.20
2022-11-29T16:36:16.692Z,61.36
2022-11-29T16:40:35.815Z,61.32
2022-11-29T16:44:57.879Z,61.41
2022-11-29T16:49:35.838Z,61.44
2022-11-29T16:53:53.655Z,61.28
2022-11-29T16:58:11.364Z,61.42
2022-11-29T17:02:29.093Z,61.76
2022-11-29T17:06:45.283Z,61.22
2022-11-29T17:11:01.381Z,61.50
2022-11-29T17:15:18.018Z,61.56
2022-11-29T17:19:36.359Z,61.69
2022-11-29T17:23:53.461Z,60.85
2022-11-29T17:28:09.708Z,60.16
2022-11-29T17:32:27.066Z,60.74
2022-11-29T17:36:45.488Z,60.88
2022-11-29T17:41:08.272Z,60.63
2022-11-29T17:45:24.802Z,61.03
2022-11-29T17:49:41.089Z,61.61
2022-11-29T17:53:58.951Z,61.31
2022-11-29T17:58:15.243Z,61.94
2022-11-29T18:02:31.587Z,61.61
2022-11-29T18:06:50.397Z,60.79
2022-11-29T18:11:13.250Z,60.78
2022-11-29T18:15:29.549Z,61.95
2022-11-29T18:19:46.213Z,61.62
2022-11-29T18:24:04.599Z,61.15
2022-11-29T18:28:20.881Z,62.89
2022-11-29T18:32:37.062Z,60.88
2022-11-29T18:36:53.190Z,60.49
2022-11-29T18:41:18.433Z,61.47
2022-11-29T18:45:38.089Z,61.25
2022-11-29T18:49:54.488Z,60.32
2022-11-29T18:54:10.668Z,63.48
2022-11-29T18:58:26.859Z,62.85
2022-11-29T19:02:43.202Z,61.78
2022-11-29T19:07:01.315Z,63.35
2022-11-29T19:11:19.706Z,61.69
2022-11-29T19:15:35.865Z,63.64
2022-11-29T19:19:52.084Z,63.07
2022-11-29T19:24:14.314Z,62.37
2022-11-29T19:28:30.961Z,62.83
2022-11-29T19:32:47.313Z,61.46
2022-11-29T19:37:03.599Z,62.75
2022-11-29T19:41:26.305Z,62.88
2022-11-29T19:45:42.425Z,63.06
2022-11-29T19:50:02.345Z,62.41
2022-11-29T19:54:18.926Z,62.69
2022-11-29T19:58:35.062Z,63.21
2022-11-29T20:02:51.162Z,62.50
2022-11-29T20:07:07.432Z,62.34
2022-11-29T20:11:24.653Z,61.89
2022-11-29T20:15:40.825Z,64.14
2022-11-29T20:19:56.966Z,64.10
2022-11-29T20:24:14.604Z,64.42
2022-11-29T20:28:30.855Z,64.57
2022-11-29T20:32:47.833Z,64.68
2022-11-29T20:37:25.614Z,64.69
2022-11-29T20:41:42.219Z,64.63
2022-11-29T20:45:58.472Z,64.88
2022-11-29T20:50:24.077Z,64.54
2022-11-29T20:54:43.355Z,62.84
2022-11-29T20:58:59.804Z,63.33
2022-11-29T21:03:17.434Z,62.80
2022-11-29T21:07:33.675Z,63.08
2022-11-29T21:11:50.078Z,63.71
2022-11-29T21:16:06.767Z,64.02
2022-11-29T21:20:26.164Z,64.19
2022-11-29T21:25:05.788Z,63.79
2022-11-29T21:29:23.380Z,63.14
2022-11-29T21:33:39.955Z,62.97
2022-11-29T21:37:58.636Z,63.55
2022-11-29T21:42:14.875Z,64.05
2022-11-29T21:46:30.981Z,63.97
2022-11-29T21:50:50.532Z,62.33
2022-11-29T21:55:06.878Z,62.57
2022-11-29T21:59:25.042Z,62.83
2022-11-29T22:03:41.941Z,61.86
2022-11-29T22:07:58.015Z,60.98
2022-11-29T22:12:33.184Z,61.28
2022-11-29T22:17:00.997Z,61.50
2022-11-29T22:21:17.160Z,61.52
2022-11-29T22:25:33.270Z,61.41
2022-11-29T22:29:49.514Z,63.47
2022-11-29T22:34:05.655Z,61.63
2022-11-29T22:38:21.836Z,61.51
2022-11-29T22:42:37.950Z,62.09
2022-11-29T22:46:54.181Z,60.73
2022-11-29T22:51:21.032Z,61.01
2022-11-29T22:55:37.209Z,60.58
2022-11-29T22:59:53.319Z,59.87
2022-11-29T23:04:10.934Z,59.56
2022-11-29T23:08:28.313Z,60.15
2022-11-29T23:12:44.768Z,61.26
2022-11-29T23:17:00.859Z,60.13
2022-11-29T23:21:23.701Z,59.81
2022-11-29T23:25:48.179Z,59.76
2022-11-29T23:30:04.962Z,60.79
2022-11-29T23:34:21.077Z,60.62
2022-11-29T23:38:37.368Z,59.93
2022-11-29T23:42:53.792Z,60.31
2022-11-29T23:47:09.900Z,61.64
2022-11-29T23:51:26.044Z,59.92
2022-11-29T23:55:42.507Z,59.28
2022-11-29T23:59:58.693Z,59.32
